sensor_id;sensor_type;location;lat;lon;timestamp;P1;durP1;ratioP1;P2;durP2;ratioP2
62574;SDS011;53112;45.602;11.904;2022-12-07T00:01:10;31.38;;;19.63;;
62574;SDS011;53112;45.602;11.904;2022-12-07T00:03:37;38.38;;;22.23;;
62574;SDS011;53112;45.602;11.904;2022-12-07T00:06:04;34.05;;;21.38;;
62574;SDS011;53112;45.602;11.904;2022-12-07T00:08:32;34.10;;;20.73;;
62574;SDS011;53112;45.602;11.904;2022-12-07T00:11:05;39.95;;;21.83;;
62574;SDS011;53112;45.602;11.904;2022-12-07T00:13:36;36.33;;;22.38;;
62574;SDS011;53112;45.602;11.904;2022-12-07T00:16:03;29.70;;;19.77;;
62574;SDS011;53112;45.602;11.904;2022-12-07T00:18:30;32.20;;;20.02;;
62574;SDS011;53112;45.602;11.904;2022-12-07T00:21:02;31.92;;;19.60;;
62574;SDS011;53112;45.602;11.904;2022-12-07T00:23:30;31.52;;;20.55;;
62574;SDS011;53112;45.602;11.904;2022-12-07T00:26:02;28.20;;;19.27;;
62574;SDS011;53112;45.602;11.904;2022-12-07T00:28:30;32.88;;;20.10;;
62574;SDS011;53112;45.602;11.904;2022-12-07T00:31:29;27.25;;;18.27;;
62574;SDS011;53112;45.602;11.904;2022-12-07T00:33:49;30.13;;;19.08;;
62574;SDS011;53112;45.602;11.904;2022-12-07T00:36:17;30.15;;;19.48;;
62574;SDS011;53112;45.602;11.904;2022-12-07T00:38:44;28.67;;;18.20;;
62574;SDS011;53112;45.602;11.904;2022-12-07T00:41:11;27.35;;;17.88;;
62574;SDS011;53112;45.602;11.904;2022-12-07T00:43:47;39.17;;;19.13;;
62574;SDS011;53112;45.602;11.904;2022-12-07T00:46:14;30.08;;;18.10;;
62574;SDS011;53112;45.602;11.904;2022-12-07T00:48:41;31.42;;;19.60;;
62574;SDS011;53112;45.602;11.904;2022-12-07T00:51:07;25.85;;;17.77;;
62574;SDS011;53112;45.602;11.904;2022-12-07T00:53:35;30.85;;;18.90;;
62574;SDS011;53112;45.602;11.904;2022-12-07T00:56:09;27.55;;;17.85;;
62574;SDS011;53112;45.602;11.904;2022-12-07T00:58:38;27.42;;;17.85;;
62574;SDS011;53112;45.602;11.904;2022-12-07T01:01:05;31.73;;;18.80;;
62574;SDS011;53112;45.602;11.904;2022-12-07T01:03:32;31.15;;;18.73;;
62574;SDS011;53112;45.602;11.904;2022-12-07T01:05:58;30.45;;;18.50;;
62574;SDS011;53112;45.602;11.904;2022-12-07T01:08:25;28.27;;;17.55;;
62574;SDS011;53112;45.602;11.904;2022-12-07T01:11:05;25.40;;;16.83;;
62574;SDS011;53112;45.602;11.904;2022-12-07T01:13:33;26.00;;;16.33;;
62574;SDS011;53112;45.602;11.904;2022-12-07T01:16:01;27.98;;;17.35;;
62574;SDS011;53112;45.602;11.904;2022-12-07T01:18:30;32.50;;;18.25;;
62574;SDS011;53112;45.602;11.904;2022-12-07T01:20:58;27.00;;;17.25;;
62574;SDS011;53112;45.602;11.904;2022-12-07T01:23:32;27.38;;;17.90;;
62574;SDS011;53112;45.602;11.904;2022-12-07T01:26:00;25.75;;;17.67;;
62574;SDS011;53112;45.602;11.904;2022-12-07T01:28:28;24.77;;;16.63;;
62574;SDS011;53112;45.602;11.904;2022-12-07T01:30:58;26.73;;;16.52;;
62574;SDS011;53112;45.602;11.904;2022-12-07T01:33:26;28.13;;;17.92;;
62574;SDS011;53112;45.602;11.904;2022-12-07T01:35:53;27.08;;;17.35;;
62574;SDS011;53112;45.602;11.904;2022-12-07T01:38:20;27.92;;;17.55;;
62574;SDS011;53112;45.602;11.904;2022-12-07T01:40:53;28.33;;;18.00;;
62574;SDS011;53112;45.602;11.904;2022-12-07T01:43:21;28.48;;;17.90;;
62574;SDS011;53112;45.602;11.904;2022-12-07T01:45:49;27.90;;;17.75;;
62574;SDS011;53112;45.602;11.904;2022-12-07T01:48:15;26.02;;;16.95;;
62574;SDS011;53112;45.602;11.904;2022-12-07T01:50:46;28.00;;;16.88;;
62574;SDS011;53112;45.602;11.904;2022-12-07T01:53:15;26.83;;;16.60;;
62574;SDS011;53112;45.602;11.904;2022-12-07T01:55:44;27.25;;;18.35;;
62574;SDS011;53112;45.602;11.904;2022-12-07T01:58:13;28.30;;;18.08;;
62574;SDS011;53112;45.602;11.904;2022-12-07T02:00:40;29.27;;;17.83;;
62574;SDS011;53112;45.602;11.904;2022-12-07T02:03:48;25.33;;;16.55;;
62574;SDS011;53112;45.602;11.904;2022-12-07T02:05:57;24.95;;;16.98;;
62574;SDS011;53112;45.602;11.904;2022-12-07T02:08:25;27.80;;;17.65;;
62574;SDS011;53112;45.602;11.904;2022-12-07T02:10:51;26.23;;;17.67;;
62574;SDS011;53112;45.602;11.904;2022-12-07T02:13:25;26.52;;;17.52;;
62574;SDS011;53112;45.602;11.904;2022-12-07T02:22:07;25.55;;;16.55;;
62574;SDS011;53112;45.602;11.904;2022-12-07T02:29:37;29.77;;;18.08;;
62574;SDS011;53112;45.602;11.904;2022-12-07T02:32:09;28.25;;;16.48;;
62574;SDS011;53112;45.602;11.904;2022-12-07T02:37:22;24.42;;;16.67;;
62574;SDS011;53112;45.602;11.904;2022-12-07T02:42:54;24.50;;;15.05;;
62574;SDS011;53112;45.602;11.904;2022-12-07T02:45:29;24.30;;;15.73;;
62574;SDS011;53112;45.602;11.904;2022-12-07T02:47:58;25.00;;;15.90;;
62574;SDS011;53112;45.602;11.904;2022-12-07T02:50:26;24.75;;;15.60;;
62574;SDS011;53112;45.602;11.904;2022-12-07T02:52:52;22.67;;;15.07;;
62574;SDS011;53112;45.602;11.904;2022-12-07T02:55:19;21.83;;;14.38;;
62574;SDS011;53112;45.602;11.904;2022-12-07T02:58:01;24.37;;;15.30;;
62574;SDS011;53112;45.602;11.904;2022-12-07T03:00:29;22.45;;;14.60;;
62574;SDS011;53112;45.602;11.904;2022-12-07T03:03:00;24.08;;;14.13;;
62574;SDS011;53112;45.602;11.904;2022-12-07T03:11:13;25.70;;;14.00;;
62574;SDS011;53112;45.602;11.904;2022-12-07T03:14:07;24.63;;;14.68;;
62574;SDS011;53112;45.602;11.904;2022-12-07T03:16:46;21.23;;;13.48;;
62574;SDS011;53112;45.602;11.904;2022-12-07T03:19:41;21.63;;;13.77;;
62574;SDS011;53112;45.602;11.904;2022-12-07T03:22:10;22.48;;;12.95;;
62574;SDS011;53112;45.602;11.904;2022-12-07T03:24:42;20.25;;;13.50;;
62574;SDS011;53112;45.602;11.904;2022-12-07T03:27:17;26.73;;;15.45;;
62574;SDS011;53112;45.602;11.904;2022-12-07T03:32:33;26.55;;;15.27;;
62574;SDS011;53112;45.602;11.904;2022-12-07T03:37:52;23.40;;;14.60;;
62574;SDS011;53112;45.602;11.904;2022-12-07T03:40:27;23.95;;;14.85;;
62574;SDS011;53112;45.602;11.904;2022-12-07T03:43:18;21.25;;;13.50;;
62574;SDS011;53112;45.602;11.904;2022-12-07T03:45:50;25.48;;;15.25;;
62574;SDS011;53112;45.602;11.904;2022-12-07T03:48:29;25.20;;;14.35;;
62574;SDS011;53112;45.602;11.904;2022-12-07T03:51:12;25.85;;;14.85;;
62574;SDS011;53112;45.602;11.904;2022-12-07T03:53:48;23.92;;;15.05;;
62574;SDS011;53112;45.602;11.904;2022-12-07T03:56:27;22.50;;;14.38;;
62574;SDS011;53112;45.602;11.904;2022-12-07T03:58:54;24.77;;;15.85;;
62574;SDS011;53112;45.602;11.904;2022-12-07T04:01:22;26.05;;;15.25;;
62574;SDS011;53112;45.602;11.904;2022-12-07T04:03:48;25.73;;;14.98;;
62574;SDS011;53112;45.602;11.904;2022-12-07T04:06:14;26.80;;;16.38;;
62574;SDS011;53112;45.602;11.904;2022-12-07T04:08:41;24.42;;;15.70;;
62574;SDS011;53112;45.602;11.904;2022-12-07T04:11:06;23.92;;;15.35;;
62574;SDS011;53112;45.602;11.904;2022-12-07T04:13:33;26.48;;;16.23;;
62574;SDS011;53112;45.602;11.904;2022-12-07T04:16:19;23.17;;;14.35;;
62574;SDS011;53112;45.602;11.904;2022-12-07T04:18:45;22.92;;;14.77;;
62574;SDS011;53112;45.602;11.904;2022-12-07T04:21:11;25.85;;;14.63;;
62574;SDS011;53112;45.602;11.904;2022-12-07T04:23:37;26.02;;;15.68;;
62574;SDS011;53112;45.602;11.904;2022-12-07T04:26:03;26.75;;;15.77;;
62574;SDS011;53112;45.602;11.904;2022-12-07T04:28:29;25.52;;;15.20;;
62574;SDS011;53112;45.602;11.904;2022-12-07T04:30:55;22.77;;;14.70;;
62574;SDS011;53112;45.602;11.904;2022-12-07T04:33:20;23.85;;;14.90;;
62574;SDS011;53112;45.602;11.904;2022-12-07T04:35:46;26.02;;;16.17;;
62574;SDS011;53112;45.602;11.904;2022-12-07T04:38:12;28.38;;;15.95;;
62574;SDS011;53112;45.602;11.904;2022-12-07T04:40:38;23.20;;;15.20;;
62574;SDS011;53112;45.602;11.904;2022-12-07T04:43:04;24.85;;;15.52;;
62574;SDS011;53112;45.602;11.904;2022-12-07T04:45:30;24.52;;;15.82;;
62574;SDS011;53112;45.602;11.904;2022-12-07T04:47:57;25.95;;;16.65;;
62574;SDS011;53112;45.602;11.904;2022-12-07T04:50:22;26.33;;;15.77;;
62574;SDS011;53112;45.602;11.904;2022-12-07T04:52:49;24.88;;;16.08;;
62574;SDS011;53112;45.602;11.904;2022-12-07T04:55:15;23.25;;;14.45;;
62574;SDS011;53112;45.602;11.904;2022-12-07T04:57:41;23.70;;;14.68;;
62574;SDS011;53112;45.602;11.904;2022-12-07T05:00:07;23.20;;;15.18;;
62574;SDS011;53112;45.602;11.904;2022-12-07T05:02:33;21.45;;;13.73;;
62574;SDS011;53112;45.602;11.904;2022-12-07T05:04:59;25.27;;;14.38;;
62574;SDS011;53112;45.602;11.904;2022-12-07T05:07:25;22.50;;;14.25;;
62574;SDS011;53112;45.602;11.904;2022-12-07T05:09:51;20.92;;;13.38;;
62574;SDS011;53112;45.602;11.904;2022-12-07T05:12:17;20.67;;;13.27;;
62574;SDS011;53112;45.602;11.904;2022-12-07T05:14:43;24.92;;;15.40;;
62574;SDS011;53112;45.602;11.904;2022-12-07T05:17:09;26.13;;;15.63;;
62574;SDS011;53112;45.602;11.904;2022-12-07T05:19:36;28.08;;;16.88;;
62574;SDS011;53112;45.602;11.904;2022-12-07T05:22:02;24.58;;;15.85;;
62574;SDS011;53112;45.602;11.904;2022-12-07T05:24:28;22.30;;;13.73;;
62574;SDS011;53112;45.602;11.904;2022-12-07T05:26:54;24.73;;;14.88;;
62574;SDS011;53112;45.602;11.904;2022-12-07T05:29:20;22.58;;;14.98;;
62574;SDS011;53112;45.602;11.904;2022-12-07T05:31:46;24.95;;;15.63;;
62574;SDS011;53112;45.602;11.904;2022-12-07T05:34:12;23.77;;;14.45;;
62574;SDS011;53112;45.602;11.904;2022-12-07T05:36:38;25.92;;;16.48;;
62574;SDS011;53112;45.602;11.904;2022-12-07T05:39:04;27.13;;;15.75;;
62574;SDS011;53112;45.602;11.904;2022-12-07T05:41:30;24.35;;;15.73;;
62574;SDS011;53112;45.602;11.904;2022-12-07T05:44:15;25.08;;;14.88;;
62574;SDS011;53112;45.602;11.904;2022-12-07T05:46:41;24.02;;;15.43;;
62574;SDS011;53112;45.602;11.904;2022-12-07T05:49:07;25.70;;;15.32;;
62574;SDS011;53112;45.602;11.904;2022-12-07T05:51:33;23.05;;;14.50;;
62574;SDS011;53112;45.602;11.904;2022-12-07T05:53:59;25.58;;;16.20;;
62574;SDS011;53112;45.602;11.904;2022-12-07T05:56:24;26.38;;;15.95;;
62574;SDS011;53112;45.602;11.904;2022-12-07T05:58:51;28.80;;;16.13;;
62574;SDS011;53112;45.602;11.904;2022-12-07T06:01:36;27.25;;;16.65;;
62574;SDS011;53112;45.602;11.904;2022-12-07T06:04:02;26.45;;;16.65;;
62574;SDS011;53112;45.602;11.904;2022-12-07T06:06:29;29.23;;;16.55;;
62574;SDS011;53112;45.602;11.904;2022-12-07T06:08:55;26.02;;;15.68;;
62574;SDS011;53112;45.602;11.904;2022-12-07T06:11:20;26.42;;;15.35;;
62574;SDS011;53112;45.602;11.904;2022-12-07T06:14:05;26.48;;;15.35;;
62574;SDS011;53112;45.602;11.904;2022-12-07T06:16:31;23.55;;;15.35;;
62574;SDS011;53112;45.602;11.904;2022-12-07T06:18:57;26.50;;;16.33;;
62574;SDS011;53112;45.602;11.904;2022-12-07T06:21:23;30.15;;;18.15;;
62574;SDS011;53112;45.602;11.904;2022-12-07T06:23:51;29.95;;;17.67;;
62574;SDS011;53112;45.602;11.904;2022-12-07T06:26:17;32.10;;;17.50;;
62574;SDS011;53112;45.602;11.904;2022-12-07T06:28:43;27.55;;;17.15;;
62574;SDS011;53112;45.602;11.904;2022-12-07T06:31:09;25.98;;;15.35;;
62574;SDS011;53112;45.602;11.904;2022-12-07T06:33:35;29.63;;;17.73;;
62574;SDS011;53112;45.602;11.904;2022-12-07T06:36:01;29.75;;;17.33;;
62574;SDS011;53112;45.602;11.904;2022-12-07T06:38:27;25.92;;;17.02;;
62574;SDS011;53112;45.602;11.904;2022-12-07T06:40:53;29.52;;;18.20;;
62574;SDS011;53112;45.602;11.904;2022-12-07T06:43:19;30.42;;;18.30;;
62574;SDS011;53112;45.602;11.904;2022-12-07T06:45:44;29.50;;;18.95;;
62574;SDS011;53112;45.602;11.904;2022-12-07T06:48:10;28.25;;;17.85;;
62574;SDS011;53112;45.602;11.904;2022-12-07T06:50:36;27.05;;;17.88;;
62574;SDS011;53112;45.602;11.904;2022-12-07T06:53:02;28.23;;;17.90;;
62574;SDS011;53112;45.602;11.904;2022-12-07T06:55:28;26.45;;;16.38;;
62574;SDS011;53112;45.602;11.904;2022-12-07T06:57:54;23.92;;;15.70;;
62574;SDS011;53112;45.602;11.904;2022-12-07T07:00:20;25.98;;;16.20;;
62574;SDS011;53112;45.602;11.904;2022-12-07T07:02:46;28.23;;;16.10;;
62574;SDS011;53112;45.602;11.904;2022-12-07T07:05:12;28.27;;;16.88;;
62574;SDS011;53112;45.602;11.904;2022-12-07T07:07:38;32.83;;;19.77;;
62574;SDS011;53112;45.602;11.904;2022-12-07T07:10:04;28.42;;;18.33;;
62574;SDS011;53112;45.602;11.904;2022-12-07T07:12:30;29.77;;;17.60;;
62574;SDS011;53112;45.602;11.904;2022-12-07T07:14:56;28.00;;;18.08;;
62574;SDS011;53112;45.602;11.904;2022-12-07T07:17:22;29.35;;;18.55;;
62574;SDS011;53112;45.602;11.904;2022-12-07T07:19:48;24.33;;;15.93;;
62574;SDS011;53112;45.602;11.904;2022-12-07T07:22:14;28.08;;;16.38;;
62574;SDS011;53112;45.602;11.904;2022-12-07T07:24:40;27.15;;;16.80;;
62574;SDS011;53112;45.602;11.904;2022-12-07T07:27:06;28.52;;;16.77;;
62574;SDS011;53112;45.602;11.904;2022-12-07T07:29:32;27.38;;;17.60;;
62574;SDS011;53112;45.602;11.904;2022-12-07T07:31:59;36.65;;;20.80;;
62574;SDS011;53112;45.602;11.904;2022-12-07T07:34:25;35.78;;;20.45;;
62574;SDS011;53112;45.602;11.904;2022-12-07T07:36:51;30.77;;;17.75;;
62574;SDS011;53112;45.602;11.904;2022-12-07T07:39:17;36.13;;;20.73;;
62574;SDS011;53112;45.602;11.904;2022-12-07T07:41:42;31.98;;;17.92;;
62574;SDS011;53112;45.602;11.904;2022-12-07T07:44:09;36.28;;;19.75;;
62574;SDS011;53112;45.602;11.904;2022-12-07T07:46:35;33.08;;;19.35;;
62574;SDS011;53112;45.602;11.904;2022-12-07T07:49:01;30.70;;;19.83;;
62574;SDS011;53112;45.602;11.904;2022-12-07T07:51:27;32.38;;;19.02;;
62574;SDS011;53112;45.602;11.904;2022-12-07T07:53:53;31.55;;;19.40;;
62574;SDS011;53112;45.602;11.904;2022-12-07T07:56:19;31.70;;;19.63;;
62574;SDS011;53112;45.602;11.904;2022-12-07T07:58:45;34.15;;;19.65;;
62574;SDS011;53112;45.602;11.904;2022-12-07T08:01:11;31.08;;;19.75;;
62574;SDS011;53112;45.602;11.904;2022-12-07T08:03:39;36.33;;;22.15;;
62574;SDS011;53112;45.602;11.904;2022-12-07T08:06:05;40.97;;;24.00;;
62574;SDS011;53112;45.602;11.904;2022-12-07T08:08:31;35.13;;;23.30;;
62574;SDS011;53112;45.602;11.904;2022-12-07T08:10:57;39.92;;;23.52;;
62574;SDS011;53112;45.602;11.904;2022-12-07T08:13:26;38.20;;;24.77;;
62574;SDS011;53112;45.602;11.904;2022-12-07T08:15:52;36.55;;;22.60;;
62574;SDS011;53112;45.602;11.904;2022-12-07T08:18:18;39.30;;;24.80;;
62574;SDS011;53112;45.602;11.904;2022-12-07T08:20:43;41.47;;;25.30;;
62574;SDS011;53112;45.602;11.904;2022-12-07T08:23:09;38.70;;;23.27;;
62574;SDS011;53112;45.602;11.904;2022-12-07T08:25:36;41.40;;;23.27;;
62574;SDS011;53112;45.602;11.904;2022-12-07T08:28:02;40.83;;;24.15;;
62574;SDS011;53112;45.602;11.904;2022-12-07T08:30:28;42.13;;;24.55;;
62574;SDS011;53112;45.602;11.904;2022-12-07T08:32:55;40.15;;;22.85;;
62574;SDS011;53112;45.602;11.904;2022-12-07T08:35:21;41.25;;;25.13;;
62574;SDS011;53112;45.602;11.904;2022-12-07T08:37:47;39.33;;;23.13;;
62574;SDS011;53112;45.602;11.904;2022-12-07T08:40:13;40.08;;;24.45;;
62574;SDS011;53112;45.602;11.904;2022-12-07T08:42:43;39.75;;;25.45;;
62574;SDS011;53112;45.602;11.904;2022-12-07T08:45:19;39.92;;;23.83;;
62574;SDS011;53112;45.602;11.904;2022-12-07T08:47:48;37.08;;;23.98;;
62574;SDS011;53112;45.602;11.904;2022-12-07T08:50:18;34.92;;;22.13;;
62574;SDS011;53112;45.602;11.904;2022-12-07T08:52:44;31.05;;;21.92;;
62574;SDS011;53112;45.602;11.904;2022-12-07T08:55:15;29.60;;;19.48;;
62574;SDS011;53112;45.602;11.904;2022-12-07T08:57:43;34.83;;;22.00;;
62574;SDS011;53112;45.602;11.904;2022-12-07T09:00:09;30.83;;;18.52;;
62574;SDS011;53112;45.602;11.904;2022-12-07T09:02:36;30.20;;;19.67;;
62574;SDS011;53112;45.602;11.904;2022-12-07T09:05:02;30.13;;;19.08;;
62574;SDS011;53112;45.602;11.904;2022-12-07T09:07:28;31.95;;;20.83;;
62574;SDS011;53112;45.602;11.904;2022-12-07T09:09:56;35.90;;;21.33;;
62574;SDS011;53112;45.602;11.904;2022-12-07T09:12:22;31.63;;;18.83;;
62574;SDS011;53112;45.602;11.904;2022-12-07T09:14:48;30.55;;;19.05;;
62574;SDS011;53112;45.602;11.904;2022-12-07T09:17:14;29.23;;;17.00;;
62574;SDS011;53112;45.602;11.904;2022-12-07T09:19:40;27.23;;;17.73;;
62574;SDS011;53112;45.602;11.904;2022-12-07T09:22:07;28.48;;;17.70;;
62574;SDS011;53112;45.602;11.904;2022-12-07T09:24:33;26.15;;;17.05;;
62574;SDS011;53112;45.602;11.904;2022-12-07T09:26:59;25.90;;;16.55;;
62574;SDS011;53112;45.602;11.904;2022-12-07T09:29:25;24.63;;;16.00;;
62574;SDS011;53112;45.602;11.904;2022-12-07T09:31:51;25.98;;;16.10;;
62574;SDS011;53112;45.602;11.904;2022-12-07T09:34:17;25.02;;;16.25;;
62574;SDS011;53112;45.602;11.904;2022-12-07T09:36:43;26.60;;;16.15;;
62574;SDS011;53112;45.602;11.904;2022-12-07T09:39:09;24.40;;;16.13;;
62574;SDS011;53112;45.602;11.904;2022-12-07T09:41:38;22.48;;;15.63;;
62574;SDS011;53112;45.602;11.904;2022-12-07T09:44:07;23.10;;;14.77;;
62574;SDS011;53112;45.602;11.904;2022-12-07T09:46:40;22.05;;;14.82;;
62574;SDS011;53112;45.602;11.904;2022-12-07T09:49:14;19.92;;;14.20;;
62574;SDS011;53112;45.602;11.904;2022-12-07T09:51:43;18.85;;;12.77;;
62574;SDS011;53112;45.602;11.904;2022-12-07T09:54:12;20.98;;;13.07;;
62574;SDS011;53112;45.602;11.904;2022-12-07T09:56:40;20.52;;;13.75;;
62574;SDS011;53112;45.602;11.904;2022-12-07T09:59:05;24.92;;;14.18;;
62574;SDS011;53112;45.602;11.904;2022-12-07T10:01:37;28.67;;;13.82;;
62574;SDS011;53112;45.602;11.904;2022-12-07T10:04:14;19.85;;;13.90;;
62574;SDS011;53112;45.602;11.904;2022-12-07T10:06:41;21.88;;;13.73;;
62574;SDS011;53112;45.602;11.904;2022-12-07T10:09:15;19.38;;;12.95;;
62574;SDS011;53112;45.602;11.904;2022-12-07T10:12:05;20.00;;;13.55;;
62574;SDS011;53112;45.602;11.904;2022-12-07T10:14:35;20.45;;;13.70;;
62574;SDS011;53112;45.602;11.904;2022-12-07T10:17:02;20.00;;;13.65;;
62574;SDS011;53112;45.602;11.904;2022-12-07T10:25:21;19.48;;;13.10;;
62574;SDS011;53112;45.602;11.904;2022-12-07T10:30:52;19.60;;;14.00;;
62574;SDS011;53112;45.602;11.904;2022-12-07T10:36:20;17.10;;;12.32;;
62574;SDS011;53112;45.602;11.904;2022-12-07T10:39:31;19.63;;;12.57;;
62574;SDS011;53112;45.602;11.904;2022-12-07T10:41:56;16.77;;;11.90;;
62574;SDS011;53112;45.602;11.904;2022-12-07T10:44:27;18.17;;;12.65;;
62574;SDS011;53112;45.602;11.904;2022-12-07T10:52:49;16.38;;;10.82;;
62574;SDS011;53112;45.602;11.904;2022-12-07T10:58:56;16.90;;;10.52;;
62574;SDS011;53112;45.602;11.904;2022-12-07T11:04:26;13.57;;;9.05;;
62574;SDS011;53112;45.602;11.904;2022-12-07T11:07:10;14.30;;;8.98;;
62574;SDS011;53112;45.602;11.904;2022-12-07T11:13:20;13.57;;;8.80;;
62574;SDS011;53112;45.602;11.904;2022-12-07T11:19:10;13.63;;;9.65;;
62574;SDS011;53112;45.602;11.904;2022-12-07T11:30:09;11.30;;;8.02;;
62574;SDS011;53112;45.602;11.904;2022-12-07T11:32:44;12.85;;;8.65;;
62574;SDS011;53112;45.602;11.904;2022-12-07T11:38:42;9.48;;;6.75;;
62574;SDS011;53112;45.602;11.904;2022-12-07T11:41:09;10.07;;;6.65;;
62574;SDS011;53112;45.602;11.904;2022-12-07T11:43:47;9.32;;;6.57;;
62574;SDS011;53112;45.602;11.904;2022-12-07T11:46:27;8.90;;;6.07;;
62574;SDS011;53112;45.602;11.904;2022-12-07T11:49:54;9.65;;;6.32;;
62574;SDS011;53112;45.602;11.904;2022-12-07T11:52:01;10.45;;;6.80;;
62574;SDS011;53112;45.602;11.904;2022-12-07T11:54:30;7.50;;;5.25;;
62574;SDS011;53112;45.602;11.904;2022-12-07T11:57:05;5.22;;;3.83;;
62574;SDS011;53112;45.602;11.904;2022-12-07T11:59:51;4.78;;;3.00;;
62574;SDS011;53112;45.602;11.904;2022-12-07T12:02:36;3.03;;;2.33;;
62574;SDS011;53112;45.602;11.904;2022-12-07T12:07:43;2.88;;;2.30;;
62574;SDS011;53112;45.602;11.904;2022-12-07T12:10:19;3.67;;;2.70;;
62574;SDS011;53112;45.602;11.904;2022-12-07T12:20:48;4.78;;;3.40;;
62574;SDS011;53112;45.602;11.904;2022-12-07T12:23:41;4.70;;;3.33;;
62574;SDS011;53112;45.602;11.904;2022-12-07T12:26:20;4.07;;;3.08;;
62574;SDS011;53112;45.602;11.904;2022-12-07T12:33:46;6.28;;;4.45;;
62574;SDS011;53112;45.602;11.904;2022-12-07T12:44:03;6.22;;;4.05;;
62574;SDS011;53112;45.602;11.904;2022-12-07T12:51:56;6.55;;;4.38;;
62574;SDS011;53112;45.602;11.904;2022-12-07T12:54:29;8.35;;;4.20;;
62574;SDS011;53112;45.602;11.904;2022-12-07T12:57:17;8.70;;;4.22;;
62574;SDS011;53112;45.602;11.904;2022-12-07T13:15:45;7.32;;;4.55;;
62574;SDS011;53112;45.602;11.904;2022-12-07T13:23:55;7.05;;;4.88;;
62574;SDS011;53112;45.602;11.904;2022-12-07T13:26:23;7.80;;;4.55;;
62574;SDS011;53112;45.602;11.904;2022-12-07T13:34:28;6.55;;;4.85;;
62574;SDS011;53112;45.602;11.904;2022-12-07T13:37:04;5.90;;;3.72;;
62574;SDS011;53112;45.602;11.904;2022-12-07T13:39:46;6.72;;;4.35;;
62574;SDS011;53112;45.602;11.904;2022-12-07T13:42:32;5.47;;;3.50;;
62574;SDS011;53112;45.602;11.904;2022-12-07T13:45:00;6.10;;;3.85;;
62574;SDS011;53112;45.602;11.904;2022-12-07T13:47:52;6.47;;;4.25;;
62574;SDS011;53112;45.602;11.904;2022-12-07T13:50:29;7.22;;;4.10;;
62574;SDS011;53112;45.602;11.904;2022-12-07T13:53:00;5.63;;;3.78;;
62574;SDS011;53112;45.602;11.904;2022-12-07T13:55:26;6.45;;;4.07;;
62574;SDS011;53112;45.602;11.904;2022-12-07T13:57:54;8.70;;;4.07;;
62574;SDS011;53112;45.602;11.904;2022-12-07T14:13:32;6.90;;;4.72;;
62574;SDS011;53112;45.602;11.904;2022-12-07T14:16:03;6.38;;;4.35;;
62574;SDS011;53112;45.602;11.904;2022-12-07T14:18:50;6.18;;;4.55;;
62574;SDS011;53112;45.602;11.904;2022-12-07T14:21:18;7.22;;;4.60;;
62574;SDS011;53112;45.602;11.904;2022-12-07T14:24:02;6.78;;;4.65;;
62574;SDS011;53112;45.602;11.904;2022-12-07T14:26:41;8.18;;;5.25;;
62574;SDS011;53112;45.602;11.904;2022-12-07T14:31:52;7.97;;;4.70;;
62574;SDS011;53112;45.602;11.904;2022-12-07T14:34:20;8.25;;;4.82;;
62574;SDS011;53112;45.602;11.904;2022-12-07T14:36:47;10.48;;;5.30;;
62574;SDS011;53112;45.602;11.904;2022-12-07T14:39:13;7.28;;;4.88;;
62574;SDS011;53112;45.602;11.904;2022-12-07T14:41:39;6.55;;;4.75;;
62574;SDS011;53112;45.602;11.904;2022-12-07T14:44:18;7.50;;;5.10;;
62574;SDS011;53112;45.602;11.904;2022-12-07T14:46:46;14.70;;;5.60;;
62574;SDS011;53112;45.602;11.904;2022-12-07T14:49:13;10.88;;;5.32;;
62574;SDS011;53112;45.602;11.904;2022-12-07T14:51:39;8.68;;;5.45;;
62574;SDS011;53112;45.602;11.904;2022-12-07T14:54:07;13.32;;;5.90;;
62574;SDS011;53112;45.602;11.904;2022-12-07T14:56:42;23.88;;;6.00;;
62574;SDS011;53112;45.602;11.904;2022-12-07T14:59:10;12.85;;;5.07;;
62574;SDS011;53112;45.602;11.904;2022-12-07T15:01:36;12.00;;;5.40;;
62574;SDS011;53112;45.602;11.904;2022-12-07T15:04:02;12.43;;;5.63;;
62574;SDS011;53112;45.602;11.904;2022-12-07T15:06:28;8.80;;;5.25;;
62574;SDS011;53112;45.602;11.904;2022-12-07T15:08:54;10.48;;;5.20;;
62574;SDS011;53112;45.602;11.904;2022-12-07T15:11:20;11.85;;;5.80;;
62574;SDS011;53112;45.602;11.904;2022-12-07T15:13:46;12.85;;;5.93;;
62574;SDS011;53112;45.602;11.904;2022-12-07T15:16:31;8.98;;;5.70;;
62574;SDS011;53112;45.602;11.904;2022-12-07T15:18:57;17.10;;;6.60;;
62574;SDS011;53112;45.602;11.904;2022-12-07T15:21:23;15.00;;;6.80;;
62574;SDS011;53112;45.602;11.904;2022-12-07T15:23:49;11.88;;;6.80;;
62574;SDS011;53112;45.602;11.904;2022-12-07T15:26:15;11.25;;;6.78;;
62574;SDS011;53112;45.602;11.904;2022-12-07T15:28:41;9.88;;;6.47;;
62574;SDS011;53112;45.602;11.904;2022-12-07T15:31:13;11.40;;;7.45;;
62574;SDS011;53112;45.602;11.904;2022-12-07T15:33:41;16.58;;;7.15;;
62574;SDS011;53112;45.602;11.904;2022-12-07T15:36:08;14.27;;;7.28;;
62574;SDS011;53112;45.602;11.904;2022-12-07T15:38:40;18.10;;;9.00;;
62574;SDS011;53112;45.602;11.904;2022-12-07T15:41:06;16.42;;;7.65;;
62574;SDS011;53112;45.602;11.904;2022-12-07T15:43:32;18.25;;;8.40;;
62574;SDS011;53112;45.602;11.904;2022-12-07T15:46:17;13.75;;;8.00;;
62574;SDS011;53112;45.602;11.904;2022-12-07T15:48:45;13.40;;;8.10;;
62574;SDS011;53112;45.602;11.904;2022-12-07T15:51:11;15.93;;;8.38;;
62574;SDS011;53112;45.602;11.904;2022-12-07T15:53:37;17.42;;;8.90;;
62574;SDS011;53112;45.602;11.904;2022-12-07T15:56:07;19.80;;;10.07;;
62574;SDS011;53112;45.602;11.904;2022-12-07T15:58:34;15.93;;;9.20;;
62574;SDS011;53112;45.602;11.904;2022-12-07T16:01:00;15.80;;;9.23;;
62574;SDS011;53112;45.602;11.904;2022-12-07T16:03:34;17.75;;;10.13;;
62574;SDS011;53112;45.602;11.904;2022-12-07T16:06:00;19.30;;;11.82;;
62574;SDS011;53112;45.602;11.904;2022-12-07T16:08:26;16.60;;;10.90;;
62574;SDS011;53112;45.602;11.904;2022-12-07T16:10:52;20.70;;;12.85;;
62574;SDS011;53112;45.602;11.904;2022-12-07T16:13:18;23.17;;;14.52;;
62574;SDS011;53112;45.602;11.904;2022-12-07T16:15:44;25.65;;;14.70;;
62574;SDS011;53112;45.602;11.904;2022-12-07T16:18:10;24.65;;;14.15;;
62574;SDS011;53112;45.602;11.904;2022-12-07T16:20:36;25.65;;;14.98;;
62574;SDS011;53112;45.602;11.904;2022-12-07T16:23:02;30.83;;;18.33;;
62574;SDS011;53112;45.602;11.904;2022-12-07T16:25:28;29.17;;;16.40;;
62574;SDS011;53112;45.602;11.904;2022-12-07T16:27:54;29.90;;;16.73;;
62574;SDS011;53112;45.602;11.904;2022-12-07T16:30:20;29.05;;;17.00;;
62574;SDS011;53112;45.602;11.904;2022-12-07T16:32:46;28.13;;;16.17;;
62574;SDS011;53112;45.602;11.904;2022-12-07T16:35:12;25.58;;;15.85;;
62574;SDS011;53112;45.602;11.904;2022-12-07T16:37:41;23.73;;;16.17;;
62574;SDS011;53112;45.602;11.904;2022-12-07T16:40:07;25.17;;;15.05;;
62574;SDS011;53112;45.602;11.904;2022-12-07T16:42:34;24.33;;;16.08;;
62574;SDS011;53112;45.602;11.904;2022-12-07T16:45:01;29.42;;;16.73;;
62574;SDS011;53112;45.602;11.904;2022-12-07T16:47:27;27.83;;;16.73;;
62574;SDS011;53112;45.602;11.904;2022-12-07T16:49:53;29.17;;;17.42;;